NKS2955 KLAS-KDFW
Flight info
| Callsign | NKS2955 |
|---|---|
| Flight time | N/A |
| Altitude | 39000 |
| Route | NIITZ4 SSKEE GUP J72 TXO TURKI JOVEM6 |
| Aircraft | A20N/M-SDE2E3FGHIRWXY/LB1 |
Departure
| Time | 2026-05-07 01:12 |
|---|---|
| Airport | Harry Reid International Airport (KLAS) |
Arrival
| Time | N/A |
|---|---|
| Airport | Dallas Fort Worth International Airport (KDFW) |
| Time | Latitude | Longitude | Altitude | Speed | Heading |
|---|---|---|---|---|---|
| 2026-05-07 00:26 | 36.08491 | -115.15401 | 2100 ft | 0 kts | 335° |
| 2026-05-07 00:46 | 36.08488 | -115.15399 | 2100 ft | 2 kts | 334° |
| 2026-05-07 00:47 | 36.08473 | -115.15390 | 2100 ft | 2 kts | 334° |
| 2026-05-07 00:47 | 36.08463 | -115.15384 | 2100 ft | 2 kts | 333° |
| 2026-05-07 00:47 | 36.08449 | -115.15374 | 2100 ft | 2 kts | 331° |
| 2026-05-07 00:47 | 36.08435 | -115.15365 | 2100 ft | 2 kts | 327° |
| 2026-05-07 00:48 | 36.08422 | -115.15352 | 2100 ft | 2 kts | 311° |
| 2026-05-07 00:48 | 36.08417 | -115.15335 | 2100 ft | 1 kts | 250° |
| 2026-05-07 00:48 | 36.08418 | -115.15332 | 2100 ft | 0 kts | 247° |
| 2026-05-07 01:00 | 36.08416 | -115.15338 | 2100 ft | 3 kts | 247° |
| 2026-05-07 01:00 | 36.08397 | -115.15394 | 2100 ft | 11 kts | 245° |
| 2026-05-07 01:00 | 36.08355 | -115.15502 | 2101 ft | 13 kts | 243° |
| 2026-05-07 01:00 | 36.08329 | -115.15555 | 2102 ft | 8 kts | 224° |
| 2026-05-07 01:01 | 36.08255 | -115.15549 | 2102 ft | 15 kts | 154° |
| 2026-05-07 01:01 | 36.08171 | -115.15500 | 2101 ft | 7 kts | 155° |
| 2026-05-07 01:01 | 36.08127 | -115.15476 | 2101 ft | 7 kts | 156° |
| 2026-05-07 01:01 | 36.08067 | -115.15443 | 2101 ft | 12 kts | 156° |
| 2026-05-07 01:02 | 36.07975 | -115.15392 | 2101 ft | 17 kts | 155° |
| 2026-05-07 01:02 | 36.07851 | -115.15318 | 2104 ft | 23 kts | 148° |
| 2026-05-07 01:02 | 36.07806 | -115.15118 | 2103 ft | 29 kts | 92° |
| 2026-05-07 01:02 | 36.07789 | -115.14845 | 2102 ft | 33 kts | 95° |
| 2026-05-07 01:03 | 36.07770 | -115.14564 | 2100 ft | 34 kts | 94° |
| 2026-05-07 01:03 | 36.07755 | -115.14264 | 2098 ft | 36 kts | 90° |
| 2026-05-07 01:03 | 36.07756 | -115.13954 | 2096 ft | 36 kts | 91° |
| 2026-05-07 01:03 | 36.07754 | -115.13640 | 2095 ft | 37 kts | 91° |
| 2026-05-07 01:04 | 36.07756 | -115.13317 | 2091 ft | 39 kts | 88° |
| 2026-05-07 01:04 | 36.07756 | -115.12966 | 2079 ft | 43 kts | 90° |
| 2026-05-07 01:04 | 36.07756 | -115.12658 | 2067 ft | 36 kts | 90° |
| 2026-05-07 01:04 | 36.07756 | -115.12366 | 2058 ft | 10 kts | 90° |
| 2026-05-07 01:05 | 36.07756 | -115.12322 | 2057 ft | 0 kts | 90° |
| 2026-05-07 01:06 | 36.07756 | -115.12318 | 2057 ft | 3 kts | 90° |
| 2026-05-07 01:06 | 36.07756 | -115.12255 | 2055 ft | 11 kts | 90° |
| 2026-05-07 01:06 | 36.07756 | -115.12227 | 2054 ft | 0 kts | 90° |
| 2026-05-07 01:08 | 36.07756 | -115.12219 | 2054 ft | 4 kts | 90° |
| 2026-05-07 01:08 | 36.07749 | -115.12153 | 2052 ft | 10 kts | 114° |
| 2026-05-07 01:08 | 36.07743 | -115.12144 | 2052 ft | 0 kts | 128° |
| 2026-05-07 01:09 | 36.07729 | -115.12131 | 2057 ft | 7 kts | 154° |
| 2026-05-07 01:10 | 36.07657 | -115.12136 | 2052 ft | 12 kts | 213° |
| 2026-05-07 01:10 | 36.07641 | -115.12185 | 2052 ft | 0 kts | 270° |
| 2026-05-07 01:11 | 36.07642 | -115.12257 | 2054 ft | 35 kts | 270° |
| 2026-05-07 01:11 | 36.07642 | -115.12835 | 2073 ft | 97 kts | 270° |
| 2026-05-07 01:11 | 36.07640 | -115.13888 | 2096 ft | 147 kts | 270° |
| 2026-05-07 01:11 | 36.07642 | -115.15295 | 2282 ft | 172 kts | 270° |
| 2026-05-07 01:12 | 36.07641 | -115.16816 | 2681 ft | 181 kts | 270° |
| 2026-05-07 01:12 | 36.07622 | -115.18384 | 3200 ft | 184 kts | 268° |
| 2026-05-07 01:12 | 36.07577 | -115.19988 | 3681 ft | 196 kts | 268° |
| 2026-05-07 01:12 | 36.07514 | -115.21778 | 4000 ft | 222 kts | 267° |
| 2026-05-07 01:13 | 36.07340 | -115.23782 | 4449 ft | 247 kts | 259° |
| 2026-05-07 01:13 | 36.06836 | -115.25892 | 4994 ft | 266 kts | 248° |
| 2026-05-07 01:13 | 36.05748 | -115.27767 | 5669 ft | 277 kts | 218° |
| 2026-05-07 01:13 | 36.03965 | -115.28670 | 6508 ft | 282 kts | 191° |
| 2026-05-07 01:14 | 36.02006 | -115.29047 | 7273 ft | 288 kts | 186° |
| 2026-05-07 01:14 | 35.99984 | -115.29001 | 7988 ft | 296 kts | 170° |
| 2026-05-07 01:14 | 35.98042 | -115.28128 | 8811 ft | 301 kts | 147° |
| 2026-05-07 01:14 | 35.96389 | -115.26528 | 9692 ft | 305 kts | 136° |
| 2026-05-07 01:15 | 35.94802 | -115.24724 | 10458 ft | 317 kts | 135° |
| 2026-05-07 01:15 | 35.93128 | -115.22807 | 10920 ft | 339 kts | 135° |